createdAt,value
2023-05-22T00:02:08.493Z,69.01
2023-05-22T00:04:36.571Z,69.20
2023-05-22T00:07:04.854Z,69.35
2023-05-22T00:09:33.010Z,69.43
2023-05-22T00:12:00.992Z,69.54
2023-05-22T00:14:29.063Z,69.62
2023-05-22T00:16:58.724Z,69.83
2023-05-22T00:19:26.632Z,69.94
2023-05-22T00:21:54.656Z,70.06
2023-05-22T00:24:22.976Z,69.98
2023-05-22T00:26:50.866Z,70.00
2023-05-22T00:29:18.744Z,70.10
2023-05-22T00:31:47.407Z,70.10
2023-05-22T00:34:15.308Z,70.09
2023-05-22T00:36:43.287Z,70.13
2023-05-22T00:39:11.843Z,70.27
2023-05-22T00:41:39.827Z,70.24
2023-05-22T00:44:08.217Z,70.39
2023-05-22T00:46:36.726Z,70.29
2023-05-22T00:49:05.658Z,70.50
2023-05-22T00:51:33.896Z,70.47
2023-05-22T00:54:02.417Z,70.43
2023-05-22T00:56:30.339Z,70.50
2023-05-22T00:58:59.286Z,70.71
2023-05-22T01:01:33.964Z,70.71
2023-05-22T01:04:05.192Z,70.64
2023-05-22T01:06:33.370Z,70.86
2023-05-22T01:09:01.671Z,70.82
2023-05-22T01:11:40.007Z,71.05
2023-05-22T01:14:36.015Z,71.18
2023-05-22T01:17:24.572Z,71.25
2023-05-22T01:20:34.789Z,71.15
2023-05-22T01:23:43.976Z,71.24
2023-05-22T01:26:46.964Z,71.53
2023-05-22T01:29:24.418Z,71.60
2023-05-22T01:31:56.032Z,71.71
2023-05-22T01:34:27.000Z,71.64
2023-05-22T01:36:56.606Z,71.65
2023-05-22T01:39:28.919Z,71.63
2023-05-22T01:41:58.138Z,71.63
2023-05-22T01:44:26.058Z,71.71
2023-05-22T01:46:54.147Z,71.82
2023-05-22T01:49:22.724Z,71.77
2023-05-22T01:52:12.270Z,71.79
2023-05-22T01:54:50.650Z,71.76
2023-05-22T01:57:38.159Z,71.83
2023-05-22T02:00:10.944Z,71.77
2023-05-22T02:02:49.659Z,71.89
2023-05-22T02:05:22.685Z,71.76
2023-05-22T02:07:52.177Z,71.76
2023-05-22T02:10:21.893Z,71.76
2023-05-22T02:12:49.903Z,71.77
2023-05-22T02:15:18.572Z,71.87
2023-05-22T02:17:49.678Z,72.01
2023-05-22T02:20:18.041Z,72.02
2023-05-22T02:22:47.797Z,71.89
2023-05-22T02:25:17.534Z,72.09
2023-05-22T02:27:48.212Z,72.12
2023-05-22T02:30:16.408Z,72.22
2023-05-22T02:32:45.855Z,72.28
2023-05-22T02:35:14.061Z,72.45
2023-05-22T02:37:42.354Z,72.47
2023-05-22T02:40:10.994Z,72.60
2023-05-22T02:42:39.108Z,72.72
2023-05-22T02:45:07.699Z,72.71
2023-05-22T02:47:35.948Z,72.89
2023-05-22T02:50:04.340Z,72.89
2023-05-22T02:52:32.442Z,72.95
2023-05-22T02:55:00.865Z,73.01
2023-05-22T02:57:28.983Z,73.09
2023-05-22T02:59:57.721Z,73.08
2023-05-22T03:02:28.507Z,73.14
2023-05-22T03:04:59.257Z,73.23
2023-05-22T03:07:29.722Z,73.26
2023-05-22T03:09:58.231Z,73.37
2023-05-22T03:12:26.549Z,73.48
2023-05-22T03:14:54.715Z,73.54
2023-05-22T03:17:22.897Z,73.76
2023-05-22T03:19:50.944Z,73.84
2023-05-22T03:22:19.181Z,74.21
2023-05-22T03:24:47.210Z,74.34
2023-05-22T03:27:17.454Z,74.62
2023-05-22T03:29:47.703Z,75.12
2023-05-22T03:32:16.761Z,75.37
2023-05-22T03:34:45.051Z,75.37
2023-05-22T03:37:13.303Z,75.50
2023-05-22T03:39:41.376Z,75.99
2023-05-22T03:42:19.405Z,76.30
2023-05-22T03:44:47.409Z,76.03
2023-05-22T03:47:15.913Z,76.07
2023-05-22T03:49:44.181Z,75.99
2023-05-22T03:52:12.251Z,75.81
2023-05-22T03:54:40.188Z,75.80
2023-05-22T03:57:08.725Z,75.75
2023-05-22T03:59:37.219Z,75.71
2023-05-22T04:02:05.588Z,75.79
2023-05-22T04:04:38.834Z,75.67
2023-05-22T04:07:08.495Z,75.55
2023-05-22T04:09:36.924Z,75.32
2023-05-22T04:12:05.419Z,75.40
2023-05-22T04:14:33.526Z,75.11
2023-05-22T04:17:01.739Z,74.91
2023-05-22T04:19:30.387Z,75.05
2023-05-22T04:21:59.241Z,75.12
2023-05-22T04:24:27.927Z,74.99
2023-05-22T04:27:00.373Z,74.93
2023-05-22T04:29:29.464Z,74.44
2023-05-22T04:31:57.432Z,74.25
2023-05-22T04:34:26.332Z,74.14
2023-05-22T04:36:55.124Z,73.97
2023-05-22T04:39:26.313Z,73.38
2023-05-22T04:41:54.560Z,73.39
2023-05-22T04:44:23.159Z,73.09
2023-05-22T04:46:52.608Z,72.97
2023-05-22T04:49:20.767Z,72.48
2023-05-22T04:51:48.926Z,72.18
2023-05-22T04:54:16.878Z,71.74
2023-05-22T04:56:45.010Z,72.02
2023-05-22T04:59:16.323Z,71.96
2023-05-22T05:01:45.719Z,71.54
2023-05-22T05:04:13.761Z,71.22
2023-05-22T05:06:43.330Z,70.69
2023-05-22T05:09:11.572Z,70.47
2023-05-22T05:11:39.568Z,70.17
2023-05-22T05:14:07.745Z,70.34
2023-05-22T05:16:36.396Z,69.93
2023-05-22T05:19:04.407Z,69.87
2023-05-22T05:21:32.942Z,69.31
2023-05-22T05:24:02.596Z,68.90
2023-05-22T05:26:30.639Z,68.05
2023-05-22T05:28:59.438Z,68.60
2023-05-22T05:31:34.678Z,68.61
2023-05-22T05:34:18.560Z,68.01
2023-05-22T05:37:19.338Z,67.58
2023-05-22T05:39:47.705Z,67.56
2023-05-22T05:42:17.994Z,67.22
2023-05-22T05:44:46.888Z,66.85
2023-05-22T05:47:14.911Z,66.79
2023-05-22T05:49:43.294Z,66.63
2023-05-22T05:52:11.482Z,66.34
2023-05-22T05:54:39.527Z,66.20
2023-05-22T05:57:15.256Z,66.18
2023-05-22T05:59:43.936Z,66.05
2023-05-22T06:02:42.045Z,66.26
2023-05-22T06:05:21.107Z,65.99
2023-05-22T06:07:50.087Z,65.98
2023-05-22T06:10:19.685Z,65.82
2023-05-22T06:12:57.470Z,65.48
2023-05-22T06:15:26.122Z,65.12
2023-05-22T06:17:54.115Z,64.94
2023-05-22T06:20:25.365Z,64.42
2023-05-22T06:22:53.491Z,64.31
2023-05-22T06:25:21.563Z,64.08
2023-05-22T06:27:50.274Z,63.61
2023-05-22T06:30:25.435Z,63.55
2023-05-22T06:33:01.878Z,63.03
2023-05-22T06:35:31.184Z,63.21
2023-05-22T06:37:59.334Z,62.92
2023-05-22T06:40:28.200Z,62.53
2023-05-22T06:43:01.664Z,61.80
2023-05-22T06:45:56.386Z,60.81
2023-05-22T06:48:24.303Z,60.14
2023-05-22T06:51:26.731Z,59.31
2023-05-22T06:54:04.392Z,60.15
2023-05-22T06:56:33.339Z,59.00
2023-05-22T06:59:06.231Z,58.83
2023-05-22T07:01:52.856Z,58.92
2023-05-22T07:04:27.806Z,57.72
2023-05-22T07:07:01.995Z,58.07
2023-05-22T07:09:30.142Z,57.80
2023-05-22T07:11:58.117Z,56.76
2023-05-22T07:14:26.757Z,57.17
2023-05-22T07:16:54.755Z,56.59
2023-05-22T07:19:27.717Z,55.66
2023-05-22T07:21:57.249Z,55.03
2023-05-22T07:24:25.259Z,55.70
2023-05-22T07:26:54.091Z,54.52
2023-05-22T07:29:23.207Z,53.91
2023-05-22T07:31:53.459Z,52.84
2023-05-22T07:34:23.136Z,52.84
2023-05-22T07:36:51.055Z,53.39
2023-05-22T07:39:18.927Z,53.08
2023-05-22T07:41:50.796Z,52.42
2023-05-22T07:44:19.043Z,52.02
2023-05-22T07:46:47.739Z,50.11
2023-05-22T07:49:20.537Z,49.39
2023-05-22T07:51:48.632Z,48.79
2023-05-22T07:54:18.368Z,47.78
2023-05-22T07:56:48.446Z,46.21
2023-05-22T07:59:19.807Z,46.33
2023-05-22T08:01:47.811Z,46.02
2023-05-22T08:04:16.400Z,45.55
2023-05-22T08:06:44.568Z,45.40
2023-05-22T08:09:12.578Z,44.31
2023-05-22T08:11:42.503Z,44.25
2023-05-22T08:14:10.878Z,44.14
2023-05-22T08:16:39.124Z,43.67
2023-05-22T08:19:08.193Z,43.70
2023-05-22T08:21:37.841Z,43.98
2023-05-22T08:24:09.453Z,43.24
2023-05-22T08:26:38.944Z,43.31
2023-05-22T08:29:06.873Z,43.77
2023-05-22T08:31:36.133Z,43.26
2023-05-22T08:34:05.112Z,42.79
2023-05-22T08:36:34.310Z,42.81
2023-05-22T08:39:02.908Z,42.89
2023-05-22T08:41:31.263Z,41.65
2023-05-22T08:43:59.344Z,40.17
2023-05-22T08:46:30.402Z,41.22
2023-05-22T08:48:59.111Z,41.88
2023-05-22T08:51:29.444Z,39.15
2023-05-22T08:53:57.799Z,37.60
2023-05-22T08:56:29.149Z,39.05
2023-05-22T08:58:59.693Z,39.95
2023-05-22T09:01:29.684Z,38.70
2023-05-22T09:04:02.637Z,38.44
2023-05-22T09:06:31.999Z,38.74
2023-05-22T09:09:00.242Z,39.35
2023-05-22T09:11:28.408Z,39.03
2023-05-22T09:14:10.576Z,38.16
2023-05-22T09:16:53.350Z,37.21
2023-05-22T09:19:26.703Z,36.27
2023-05-22T09:22:05.498Z,37.21
2023-05-22T09:24:42.245Z,37.95
2023-05-22T09:27:12.079Z,36.72
2023-05-22T09:29:52.413Z,36.77
2023-05-22T09:32:21.192Z,37.08
2023-05-22T09:34:53.498Z,37.03
2023-05-22T09:37:29.052Z,35.49
2023-05-22T09:39:58.032Z,34.60
2023-05-22T09:42:26.260Z,35.68
2023-05-22T09:44:54.340Z,35.71
2023-05-22T09:47:22.555Z,36.41
2023-05-22T09:49:50.595Z,36.74
2023-05-22T09:52:21.047Z,36.07
2023-05-22T09:54:55.573Z,35.78
2023-05-22T09:57:28.106Z,35.78
2023-05-22T09:59:59.613Z,35.99
2023-05-22T10:02:28.418Z,35.40
2023-05-22T10:04:57.479Z,36.97
2023-05-22T10:07:33.184Z,35.45
2023-05-22T10:10:07.548Z,36.28
2023-05-22T10:12:43.510Z,35.90
2023-05-22T10:15:12.501Z,35.46
2023-05-22T10:17:42.178Z,36.66
2023-05-22T10:20:11.453Z,36.77
2023-05-22T10:22:39.640Z,36.68
2023-05-22T10:25:10.788Z,36.30
2023-05-22T10:27:40.958Z,35.28
2023-05-22T10:30:18.200Z,36.26
2023-05-22T10:33:12.473Z,36.78
2023-05-22T10:35:55.576Z,36.43
2023-05-22T10:38:42.164Z,36.21
2023-05-22T10:41:10.902Z,37.06
2023-05-22T10:43:42.965Z,36.05
2023-05-22T10:46:13.285Z,36.31
2023-05-22T10:48:46.020Z,36.70
2023-05-22T10:51:18.345Z,36.64
2023-05-22T10:53:53.324Z,35.37
2023-05-22T10:56:25.142Z,35.59
2023-05-22T10:58:58.426Z,35.94
2023-05-22T11:01:27.491Z,34.90
2023-05-22T11:04:08.983Z,35.52
2023-05-22T11:06:45.918Z,35.92
2023-05-22T11:09:30.756Z,35.80
2023-05-22T11:12:22.835Z,36.71
2023-05-22T11:15:03.040Z,36.27
2023-05-22T11:17:32.658Z,36.15
2023-05-22T11:20:16.267Z,37.41
2023-05-22T11:22:52.545Z,36.90
2023-05-22T11:25:20.751Z,36.29
2023-05-22T11:27:49.168Z,36.35
2023-05-22T11:30:17.699Z,36.37
2023-05-22T11:32:46.450Z,34.77
2023-05-22T11:35:17.494Z,34.88
2023-05-22T11:37:46.784Z,34.97
2023-05-22T11:40:21.207Z,35.13
2023-05-22T11:42:49.434Z,33.94
2023-05-22T11:45:21.205Z,34.49
2023-05-22T11:47:49.966Z,34.63
2023-05-22T11:50:29.151Z,33.86
2023-05-22T11:52:59.568Z,33.94
2023-05-22T11:55:27.805Z,33.59
2023-05-22T11:57:56.732Z,34.49
2023-05-22T12:00:26.416Z,34.41
2023-05-22T12:02:55.303Z,34.63
2023-05-22T12:05:23.418Z,34.13
2023-05-22T12:07:51.549Z,33.63
2023-05-22T12:10:20.194Z,33.13
2023-05-22T12:12:48.506Z,33.01
2023-05-22T12:15:19.728Z,33.53
2023-05-22T12:17:48.108Z,33.23
2023-05-22T12:20:16.321Z,33.41
2023-05-22T12:22:44.414Z,33.86
2023-05-22T12:25:20.525Z,33.98
2023-05-22T12:27:48.965Z,33.67
2023-05-22T12:30:17.490Z,32.98
2023-05-22T12:32:51.993Z,33.03
2023-05-22T12:35:20.323Z,33.06
2023-05-22T12:37:51.838Z,33.26
2023-05-22T12:40:19.937Z,33.25
2023-05-22T12:42:48.912Z,33.56
2023-05-22T12:45:18.077Z,33.10
2023-05-22T12:47:46.657Z,33.22
2023-05-22T12:50:14.919Z,32.72
2023-05-22T12:52:42.866Z,32.76
2023-05-22T12:55:12.030Z,33.40
2023-05-22T12:57:40.272Z,32.92
2023-05-22T13:00:10.052Z,32.60
2023-05-22T13:02:39.245Z,32.60
2023-05-22T13:05:08.042Z,33.45
2023-05-22T13:07:37.375Z,33.16
2023-05-22T13:10:06.075Z,32.74
2023-05-22T13:12:34.747Z,33.52
2023-05-22T13:15:03.057Z,34.02
2023-05-22T13:17:31.248Z,34.08
2023-05-22T13:19:59.682Z,34.23
2023-05-22T13:22:27.606Z,34.49
2023-05-22T13:24:55.967Z,33.94
2023-05-22T13:27:24.775Z,33.82
2023-05-22T13:29:52.972Z,33.53
2023-05-22T13:32:21.148Z,33.65
2023-05-22T13:34:49.198Z,33.38
2023-05-22T13:37:18.783Z,32.91
2023-05-22T13:39:46.954Z,33.48
2023-05-22T13:42:15.285Z,32.83
2023-05-22T13:44:43.346Z,33.37
2023-05-22T13:47:12.008Z,32.79
2023-05-22T13:49:40.174Z,33.22
2023-05-22T13:52:08.104Z,32.84
2023-05-22T13:54:36.426Z,32.75
2023-05-22T13:57:04.572Z,32.62
2023-05-22T13:59:32.533Z,32.54
2023-05-22T14:02:00.846Z,32.51
2023-05-22T14:04:29.276Z,32.69
2023-05-22T14:06:57.388Z,32.25
2023-05-22T14:09:25.765Z,33.16
2023-05-22T14:11:54.118Z,32.20
2023-05-22T14:14:24.129Z,32.54
2023-05-22T14:16:52.804Z,33.09
2023-05-22T14:19:21.200Z,33.11
2023-05-22T14:21:50.913Z,33.06
2023-05-22T14:24:19.257Z,33.23
2023-05-22T14:26:47.299Z,33.25
2023-05-22T14:29:15.903Z,33.11
2023-05-22T14:31:51.408Z,33.04
2023-05-22T14:34:20.073Z,33.08
2023-05-22T14:36:48.450Z,33.11
2023-05-22T14:39:16.707Z,33.35
2023-05-22T14:41:44.773Z,32.54
2023-05-22T14:44:12.909Z,31.97
2023-05-22T14:46:41.159Z,33.06
2023-05-22T14:49:09.231Z,33.14
2023-05-22T14:51:37.451Z,32.78
2023-05-22T14:54:06.142Z,32.49
2023-05-22T14:56:34.183Z,31.91
2023-05-22T14:59:02.360Z,31.45
2023-05-22T15:01:30.925Z,31.67
2023-05-22T15:03:59.039Z,32.53
2023-05-22T15:06:27.178Z,33.18
2023-05-22T15:08:55.203Z,32.89
2023-05-22T15:11:23.377Z,32.87
2023-05-22T15:13:51.724Z,33.28
2023-05-22T15:16:20.212Z,32.91
2023-05-22T15:18:51.227Z,33.02
2023-05-22T15:21:19.713Z,33.20
2023-05-22T15:23:48.350Z,33.40
2023-05-22T15:26:16.751Z,33.08
2023-05-22T15:28:44.749Z,33.19
2023-05-22T15:31:13.951Z,32.90
2023-05-22T15:33:42.332Z,32.62
2023-05-22T15:36:10.636Z,32.57
2023-05-22T15:38:38.668Z,32.72
2023-05-22T15:41:06.828Z,33.67
2023-05-22T15:43:34.775Z,33.68
2023-05-22T15:46:02.952Z,33.16
2023-05-22T15:48:34.072Z,33.56
2023-05-22T15:51:02.046Z,33.61
2023-05-22T15:53:30.329Z,33.77
2023-05-22T15:55:58.521Z,32.44
2023-05-22T15:58:26.710Z,32.80
2023-05-22T16:00:58.257Z,32.04
2023-05-22T16:03:26.856Z,33.20
2023-05-22T16:05:55.165Z,33.36
2023-05-22T16:08:23.235Z,33.35
2023-05-22T16:10:51.428Z,33.31
2023-05-22T16:13:19.665Z,33.41
2023-05-22T16:15:47.888Z,33.54
2023-05-22T16:18:16.107Z,32.92
2023-05-22T16:20:44.263Z,33.34
2023-05-22T16:23:12.263Z,32.89
2023-05-22T16:25:40.939Z,32.96
2023-05-22T16:28:11.051Z,32.96
2023-05-22T16:30:40.441Z,33.39
2023-05-22T16:33:09.082Z,33.49
2023-05-22T16:35:37.174Z,33.52
2023-05-22T16:38:07.238Z,33.80
2023-05-22T16:40:35.449Z,33.17
2023-05-22T16:43:04.604Z,33.00
2023-05-22T16:45:32.576Z,32.85
2023-05-22T16:48:00.799Z,33.40
2023-05-22T16:50:28.894Z,34.11
2023-05-22T16:52:57.096Z,34.08
2023-05-22T17:30:21.331Z,34.95
2023-05-22T17:32:53.554Z,35.15
2023-05-22T17:35:21.688Z,35.44
2023-05-22T17:37:49.854Z,35.66
2023-05-22T17:40:18.770Z,35.98
2023-05-22T17:42:47.016Z,36.09
2023-05-22T17:45:15.624Z,36.11
2023-05-22T17:47:44.315Z,36.56
2023-05-22T17:50:12.868Z,36.98
2023-05-22T17:52:41.308Z,37.31
2023-05-22T17:55:10.577Z,37.44
2023-05-22T17:57:38.779Z,38.10
2023-05-22T18:03:04.665Z,40.26
2023-05-22T18:05:32.717Z,41.31
2023-05-22T18:08:00.674Z,41.86
2023-05-22T18:10:28.580Z,41.88
2023-05-22T18:12:56.651Z,42.58
2023-05-22T18:15:24.669Z,43.40
2023-05-22T18:17:52.742Z,43.77
2023-05-22T18:20:21.151Z,44.23
2023-05-22T18:22:49.189Z,44.48
2023-05-22T18:25:17.500Z,44.85
2023-05-22T18:27:45.655Z,45.27
2023-05-22T18:30:14.128Z,45.58
2023-05-22T18:32:42.467Z,46.01
2023-05-22T18:35:11.070Z,46.30
2023-05-22T18:37:39.347Z,46.61
2023-05-22T18:40:09.480Z,47.13
2023-05-22T18:42:37.973Z,47.66
2023-05-22T18:45:07.057Z,48.22
2023-05-22T18:47:35.444Z,48.28
2023-05-22T18:50:04.978Z,48.94
2023-05-22T18:52:33.077Z,49.17
2023-05-22T18:55:01.168Z,49.61
2023-05-22T18:57:29.205Z,49.83
2023-05-22T18:59:57.238Z,50.35
2023-05-22T19:02:25.502Z,50.75
2023-05-22T19:04:53.738Z,51.00
2023-05-22T19:07:21.898Z,51.32
2023-05-22T19:09:49.869Z,51.77
2023-05-22T19:12:17.910Z,52.20
2023-05-22T19:14:48.469Z,52.59
2023-05-22T19:17:16.444Z,52.77
2023-05-22T19:19:44.649Z,52.99
2023-05-22T19:22:12.568Z,53.44
2023-05-22T19:24:40.560Z,53.69
2023-05-22T19:27:08.964Z,54.07
2023-05-22T19:29:37.265Z,54.30
2023-05-22T19:32:05.559Z,54.63
2023-05-22T19:34:33.438Z,54.82
2023-05-22T19:37:01.534Z,55.12
2023-05-22T19:39:29.437Z,55.29
2023-05-22T19:41:57.376Z,55.62
2023-05-22T19:44:25.426Z,55.83
2023-05-22T19:46:53.485Z,56.16
2023-05-22T19:49:21.505Z,56.36
2023-05-22T19:51:49.425Z,56.66
2023-05-22T19:54:17.363Z,56.87
2023-05-22T19:56:45.345Z,57.07
2023-05-22T19:59:13.377Z,57.12
2023-05-22T20:01:41.402Z,57.46
2023-05-22T20:04:09.494Z,57.63
2023-05-22T20:06:37.777Z,57.90
2023-05-22T20:09:05.990Z,58.03
2023-05-22T20:11:33.982Z,58.09
2023-05-22T20:14:02.612Z,58.47
2023-05-22T20:16:30.708Z,58.99
2023-05-22T20:18:58.847Z,58.95
2023-05-22T20:21:27.081Z,59.18
2023-05-22T20:23:55.768Z,59.28
2023-05-22T20:26:23.889Z,59.36
2023-05-22T20:28:52.274Z,59.59
2023-05-22T20:31:20.258Z,59.65
2023-05-22T20:33:48.351Z,59.82
2023-05-22T20:36:17.004Z,60.10
2023-05-22T20:38:44.956Z,60.37
2023-05-22T20:41:13.146Z,60.40
2023-05-22T20:43:43.524Z,60.55
2023-05-22T20:46:11.765Z,60.70
2023-05-22T20:48:40.596Z,60.74
2023-05-22T20:51:10.331Z,61.22
2023-05-22T20:53:38.324Z,61.44
2023-05-22T20:56:06.769Z,61.21
2023-05-22T20:58:34.729Z,61.39
2023-05-22T21:01:02.930Z,61.52
2023-05-22T21:03:30.899Z,61.67
2023-05-22T21:05:59.005Z,61.97
2023-05-22T21:08:26.976Z,62.20
2023-05-22T21:10:54.874Z,62.36
2023-05-22T21:13:23.015Z,62.47
2023-05-22T21:15:51.000Z,62.59
2023-05-22T21:18:22.083Z,62.88
2023-05-22T21:20:50.103Z,62.99
2023-05-22T21:23:17.977Z,63.09
2023-05-22T21:25:46.127Z,63.20
2023-05-22T21:28:14.127Z,63.27
2023-05-22T21:30:42.116Z,63.32
2023-05-22T21:33:10.184Z,63.41
2023-05-22T21:35:38.302Z,63.47
2023-05-22T21:38:06.195Z,63.50
2023-05-22T21:40:34.262Z,63.62
2023-05-22T21:43:02.321Z,63.75
2023-05-22T21:45:31.187Z,63.94
2023-05-22T21:47:59.342Z,63.97
2023-05-22T21:50:27.290Z,64.22
2023-05-22T21:52:55.881Z,64.29
2023-05-22T21:55:23.901Z,64.42
2023-05-22T21:57:51.932Z,64.52
2023-05-22T22:00:19.801Z,64.73
2023-05-22T22:02:47.904Z,64.92
2023-05-22T22:05:18.590Z,64.94
2023-05-22T22:07:46.805Z,64.93
2023-05-22T22:10:14.700Z,65.22
2023-05-22T22:12:42.713Z,65.40
2023-05-22T22:15:12.195Z,65.39
2023-05-22T22:17:40.802Z,65.61
2023-05-22T22:20:09.378Z,65.60
2023-05-22T22:22:37.289Z,65.75
2023-05-22T22:25:05.985Z,65.82
2023-05-22T22:27:34.031Z,65.85
2023-05-22T22:30:02.101Z,65.97
2023-05-22T22:32:30.519Z,66.01
2023-05-22T22:34:58.501Z,66.12
2023-05-22T22:37:26.377Z,66.03
2023-05-22T22:39:54.408Z,65.95
2023-05-22T22:42:22.413Z,66.01
2023-05-22T22:44:50.426Z,66.16
2023-05-22T22:47:18.360Z,66.34
2023-05-22T22:49:46.554Z,66.57
2023-05-22T22:52:14.513Z,66.80
2023-05-22T22:54:44.573Z,66.91
2023-05-22T22:57:12.862Z,67.01
2023-05-22T22:59:40.830Z,67.03
2023-05-22T23:02:09.375Z,67.23
2023-05-22T23:04:37.364Z,67.32
2023-05-22T23:07:05.682Z,67.26
2023-05-22T23:09:33.816Z,67.42
2023-05-22T23:12:02.605Z,67.61
2023-05-22T23:14:30.642Z,67.68
2023-05-22T23:16:58.579Z,67.62
2023-05-22T23:19:26.960Z,67.73
2023-05-22T23:21:54.899Z,67.64
2023-05-22T23:24:22.943Z,67.59
2023-05-22T23:26:52.889Z,67.59
2023-05-22T23:29:20.844Z,67.73
2023-05-22T23:31:50.662Z,67.78
2023-05-22T23:34:19.233Z,67.69
2023-05-22T23:36:47.181Z,67.60
2023-05-22T23:39:15.443Z,67.61
2023-05-22T23:41:44.625Z,67.74
2023-05-22T23:44:12.486Z,67.83
2023-05-22T23:46:41.310Z,67.92
2023-05-22T23:49:09.328Z,67.96
2023-05-22T23:51:37.318Z,68.03
2023-05-22T23:54:05.498Z,67.91
2023-05-22T23:56:33.446Z,68.08
2023-05-22T23:59:01.292Z,68.08
